sensor_id;sensor_type;location;lat;lon;timestamp;temperature;humidity
44833;DHT22;30569;51.252;9.830;2023-03-15T00:01:19;1.20;99.90
44833;DHT22;30569;51.252;9.830;2023-03-15T00:11:04;1.20;99.90
44833;DHT22;30569;51.252;9.830;2023-03-15T00:15:58;1.10;99.90
44833;DHT22;30569;51.252;9.830;2023-03-15T00:18:24;0.90;99.90
44833;DHT22;30569;51.252;9.830;2023-03-15T00:25:44;0.80;99.90
44833;DHT22;30569;51.252;9.830;2023-03-15T00:28:09;1.00;99.90
44833;DHT22;30569;51.252;9.830;2023-03-15T00:30:35;1.00;99.90
44833;DHT22;30569;51.252;9.830;2023-03-15T00:40:23;0.70;99.90
44833;DHT22;30569;51.252;9.830;2023-03-15T00:45:19;0.30;99.90
44833;DHT22;30569;51.252;9.830;2023-03-15T00:47:51;0.20;99.90
44833;DHT22;30569;51.252;9.830;2023-03-15T00:50:17;0.90;99.90
44833;DHT22;30569;51.252;9.830;2023-03-15T00:55:17;0.30;99.90
44833;DHT22;30569;51.252;9.830;2023-03-15T00:57:44;0.20;99.90
44833;DHT22;30569;51.252;9.830;2023-03-15T01:00:20;-0.10;99.90
44833;DHT22;30569;51.252;9.830;2023-03-15T01:10:10;0.60;99.90
44833;DHT22;30569;51.252;9.830;2023-03-15T01:15:04;0.70;99.90
44833;DHT22;30569;51.252;9.830;2023-03-15T01:19:57;0.60;99.90
44833;DHT22;30569;51.252;9.830;2023-03-15T01:32:07;0.90;99.90
44833;DHT22;30569;51.252;9.830;2023-03-15T01:34:33;1.00;99.90
44833;DHT22;30569;51.252;9.830;2023-03-15T01:44:18;1.40;99.90
44833;DHT22;30569;51.252;9.830;2023-03-15T01:49:24;0.60;99.90
44833;DHT22;30569;51.252;9.830;2023-03-15T01:52:15;0.40;99.90
44833;DHT22;30569;51.252;9.830;2023-03-15T01:54:50;0.60;99.90
44833;DHT22;30569;51.252;9.830;2023-03-15T01:57:22;0.60;99.90
44833;DHT22;30569;51.252;9.830;2023-03-15T01:59:53;0.50;99.90
44833;DHT22;30569;51.252;9.830;2023-03-15T02:02:21;0.60;99.90
44833;DHT22;30569;51.252;9.830;2023-03-15T02:05:02;0.80;99.90
44833;DHT22;30569;51.252;9.830;2023-03-15T02:07:29;0.80;99.90
44833;DHT22;30569;51.252;9.830;2023-03-15T02:10:06;0.30;99.90
44833;DHT22;30569;51.252;9.830;2023-03-15T02:12:34;0.70;99.90
44833;DHT22;30569;51.252;9.830;2023-03-15T02:15:03;0.50;99.90
44833;DHT22;30569;51.252;9.830;2023-03-15T02:17:35;0.40;99.90
44833;DHT22;30569;51.252;9.830;2023-03-15T02:22:55;0.50;99.90
44833;DHT22;30569;51.252;9.830;2023-03-15T02:28:05;0.40;99.90
44833;DHT22;30569;51.252;9.830;2023-03-15T02:33:00;0.40;99.90
44833;DHT22;30569;51.252;9.830;2023-03-15T02:35:30;0.50;99.90
44833;DHT22;30569;51.252;9.830;2023-03-15T02:37:57;0.80;99.90
44833;DHT22;30569;51.252;9.830;2023-03-15T02:40:24;1.10;99.90
44833;DHT22;30569;51.252;9.830;2023-03-15T02:43:01;1.10;99.90
44833;DHT22;30569;51.252;9.830;2023-03-15T02:45:31;1.40;99.90
44833;DHT22;30569;51.252;9.830;2023-03-15T02:47:59;1.20;99.90
44833;DHT22;30569;51.252;9.830;2023-03-15T03:00:12;0.90;99.90
44833;DHT22;30569;51.252;9.830;2023-03-15T03:05:05;0.80;99.90
44833;DHT22;30569;51.252;9.830;2023-03-15T03:17:14;0.60;99.90
44833;DHT22;30569;51.252;9.830;2023-03-15T03:19:40;0.90;99.90
44833;DHT22;30569;51.252;9.830;2023-03-15T03:29:25;1.20;99.90
44833;DHT22;30569;51.252;9.830;2023-03-15T03:51:20;0.60;99.90
44833;DHT22;30569;51.252;9.830;2023-03-15T04:01:04;0.80;99.90
44833;DHT22;30569;51.252;9.830;2023-03-15T04:05:57;0.80;99.90
44833;DHT22;30569;51.252;9.830;2023-03-15T04:08:23;1.10;99.90
44833;DHT22;30569;51.252;9.830;2023-03-15T04:10:54;1.50;99.90
44833;DHT22;30569;51.252;9.830;2023-03-15T04:13:21;1.30;99.90
44833;DHT22;30569;51.252;9.830;2023-03-15T04:28:03;0.80;99.90
44833;DHT22;30569;51.252;9.830;2023-03-15T04:35:25;0.80;99.90
44833;DHT22;30569;51.252;9.830;2023-03-15T04:45:09;0.90;99.90
44833;DHT22;30569;51.252;9.830;2023-03-15T04:57:21;1.10;99.90
44833;DHT22;30569;51.252;9.830;2023-03-15T05:09:30;1.50;99.90
44833;DHT22;30569;51.252;9.830;2023-03-15T05:16:54;0.70;99.90
44833;DHT22;30569;51.252;9.830;2023-03-15T05:26:40;1.00;99.90
44833;DHT22;30569;51.252;9.830;2023-03-15T05:48:40;1.10;99.90
44833;DHT22;30569;51.252;9.830;2023-03-15T05:53:32;1.00;99.90
44833;DHT22;30569;51.252;9.830;2023-03-15T06:03:16;0.80;99.90
44833;DHT22;30569;51.252;9.830;2023-03-15T06:13:00;1.60;99.90
44833;DHT22;30569;51.252;9.830;2023-03-15T06:17:52;1.20;99.90
44833;DHT22;30569;51.252;9.830;2023-03-15T06:25:09;1.20;99.90
44833;DHT22;30569;51.252;9.830;2023-03-15T06:30:02;1.00;99.90
44833;DHT22;30569;51.252;9.830;2023-03-15T06:37:20;0.90;99.90
44833;DHT22;30569;51.252;9.830;2023-03-15T06:44:39;0.70;99.90
44833;DHT22;30569;51.252;9.830;2023-03-15T06:47:06;0.80;99.90
44833;DHT22;30569;51.252;9.830;2023-03-15T06:59:16;0.50;99.90
44833;DHT22;30569;51.252;9.830;2023-03-15T07:01:42;0.70;99.90
44833;DHT22;30569;51.252;9.830;2023-03-15T07:30:59;1.60;99.90
44833;DHT22;30569;51.252;9.830;2023-03-15T07:33:27;2.20;99.90
44833;DHT22;30569;51.252;9.830;2023-03-15T07:38:25;2.30;99.90
44833;DHT22;30569;51.252;9.830;2023-03-15T07:53:06;1.70;99.90
44833;DHT22;30569;51.252;9.830;2023-03-15T07:55:35;1.60;99.90
44833;DHT22;30569;51.252;9.830;2023-03-15T07:58:01;1.80;99.90
44833;DHT22;30569;51.252;9.830;2023-03-15T08:00:27;1.30;99.90
44833;DHT22;30569;51.252;9.830;2023-03-15T08:02:53;2.10;99.90
44833;DHT22;30569;51.252;9.830;2023-03-15T08:10:12;2.60;99.90
44833;DHT22;30569;51.252;9.830;2023-03-15T08:15:08;3.20;99.90
44833;DHT22;30569;51.252;9.830;2023-03-15T08:32:15;4.30;99.90
44833;DHT22;30569;51.252;9.830;2023-03-15T08:37:09;4.30;99.90
44833;DHT22;30569;51.252;9.830;2023-03-15T08:42:01;4.10;99.90
44833;DHT22;30569;51.252;9.830;2023-03-15T08:44:26;4.40;99.90
44833;DHT22;30569;51.252;9.830;2023-03-15T08:46:52;4.60;99.90
44833;DHT22;30569;51.252;9.830;2023-03-15T08:54:09;4.70;99.90
44833;DHT22;30569;51.252;9.830;2023-03-15T09:01:29;4.30;99.90
44833;DHT22;30569;51.252;9.830;2023-03-15T09:06:21;4.60;99.90
44833;DHT22;30569;51.252;9.830;2023-03-15T09:13:38;4.80;99.90
44833;DHT22;30569;51.252;9.830;2023-03-15T09:16:04;5.00;99.90
44833;DHT22;30569;51.252;9.830;2023-03-15T09:25:48;3.10;99.90
44833;DHT22;30569;51.252;9.830;2023-03-15T09:30:40;3.30;99.90
44833;DHT22;30569;51.252;9.830;2023-03-15T09:33:06;3.40;99.90
44833;DHT22;30569;51.252;9.830;2023-03-15T09:37:59;3.50;99.90
44833;DHT22;30569;51.252;9.830;2023-03-15T09:40:33;3.40;99.90
44833;DHT22;30569;51.252;9.830;2023-03-15T09:46:07;4.50;99.90
44833;DHT22;30569;51.252;9.830;2023-03-15T09:48:47;4.00;99.90
44833;DHT22;30569;51.252;9.830;2023-03-15T09:51:40;4.00;99.90
44833;DHT22;30569;51.252;9.830;2023-03-15T09:54:21;4.40;99.90
44833;DHT22;30569;51.252;9.830;2023-03-15T09:56:55;4.60;99.90
44833;DHT22;30569;51.252;9.830;2023-03-15T09:59:23;4.80;99.90
44833;DHT22;30569;51.252;9.830;2023-03-15T10:01:54;4.80;99.90
44833;DHT22;30569;51.252;9.830;2023-03-15T10:04:32;4.90;99.90
44833;DHT22;30569;51.252;9.830;2023-03-15T10:07:11;12.90;93.30
44833;DHT22;30569;51.252;9.830;2023-03-15T10:20:33;8.40;92.70
44833;DHT22;30569;51.252;9.830;2023-03-15T10:24:01;8.30;95.10
44833;DHT22;30569;51.252;9.830;2023-03-15T10:26:10;9.60;96.60
44833;DHT22;30569;51.252;9.830;2023-03-15T10:28:38;10.00;95.80
44833;DHT22;30569;51.252;9.830;2023-03-15T10:31:14;9.90;92.50
44833;DHT22;30569;51.252;9.830;2023-03-15T10:33:40;9.40;94.30
44833;DHT22;30569;51.252;9.830;2023-03-15T10:36:32;9.10;95.40
44833;DHT22;30569;51.252;9.830;2023-03-15T10:38:58;9.20;95.40
44833;DHT22;30569;51.252;9.830;2023-03-15T10:41:38;8.20;93.40
44833;DHT22;30569;51.252;9.830;2023-03-15T10:44:08;8.10;95.30
44833;DHT22;30569;51.252;9.830;2023-03-15T10:46:36;7.20;98.40
44833;DHT22;30569;51.252;9.830;2023-03-15T10:49:10;6.70;97.90
44833;DHT22;30569;51.252;9.830;2023-03-15T10:51:40;6.70;98.00
44833;DHT22;30569;51.252;9.830;2023-03-15T10:59:20;5.90;99.10
44833;DHT22;30569;51.252;9.830;2023-03-15T11:01:48;6.10;99.90
44833;DHT22;30569;51.252;9.830;2023-03-15T11:04:21;6.80;99.90
44833;DHT22;30569;51.252;9.830;2023-03-15T11:07:00;7.20;97.60
44833;DHT22;30569;51.252;9.830;2023-03-15T11:09:37;7.00;97.10
44833;DHT22;30569;51.252;9.830;2023-03-15T11:12:06;7.70;97.80
44833;DHT22;30569;51.252;9.830;2023-03-15T11:16:59;7.20;95.90
44833;DHT22;30569;51.252;9.830;2023-03-15T11:19:27;6.80;98.90
44833;DHT22;30569;51.252;9.830;2023-03-15T11:21:55;7.00;98.30
44833;DHT22;30569;51.252;9.830;2023-03-15T11:24:28;6.50;96.40
44833;DHT22;30569;51.252;9.830;2023-03-15T11:26:57;6.40;99.90
44833;DHT22;30569;51.252;9.830;2023-03-15T11:29:30;6.90;99.90
44833;DHT22;30569;51.252;9.830;2023-03-15T11:32:00;7.30;99.10
44833;DHT22;30569;51.252;9.830;2023-03-15T11:34:55;7.50;96.00
44833;DHT22;30569;51.252;9.830;2023-03-15T11:37:46;7.20;98.90
44833;DHT22;30569;51.252;9.830;2023-03-15T11:43:07;7.40;98.60
44833;DHT22;30569;51.252;9.830;2023-03-15T11:45:44;7.50;99.00
44833;DHT22;30569;51.252;9.830;2023-03-15T11:48:25;7.80;96.30
44833;DHT22;30569;51.252;9.830;2023-03-15T11:50:54;8.10;98.20
44833;DHT22;30569;51.252;9.830;2023-03-15T11:53:20;8.30;99.20
44833;DHT22;30569;51.252;9.830;2023-03-15T11:55:49;8.60;98.90
44833;DHT22;30569;51.252;9.830;2023-03-15T11:58:28;8.10;96.00
44833;DHT22;30569;51.252;9.830;2023-03-15T12:03:39;7.60;93.00
44833;DHT22;30569;51.252;9.830;2023-03-15T12:08:48;7.00;92.20
44833;DHT22;30569;51.252;9.830;2023-03-15T12:16:21;6.00;95.60
44833;DHT22;30569;51.252;9.830;2023-03-15T12:18:48;6.10;94.70
44833;DHT22;30569;51.252;9.830;2023-03-15T12:21:21;5.90;93.20
44833;DHT22;30569;51.252;9.830;2023-03-15T12:23:56;5.90;93.40
44833;DHT22;30569;51.252;9.830;2023-03-15T12:26:31;5.80;94.10
44833;DHT22;30569;51.252;9.830;2023-03-15T12:31:25;5.80;95.70
44833;DHT22;30569;51.252;9.830;2023-03-15T12:33:55;5.80;96.70
44833;DHT22;30569;51.252;9.830;2023-03-15T12:36:37;6.30;95.30
44833;DHT22;30569;51.252;9.830;2023-03-15T12:44:38;6.90;97.00
44833;DHT22;30569;51.252;9.830;2023-03-15T12:47:09;6.70;97.40
44833;DHT22;30569;51.252;9.830;2023-03-15T12:49:41;6.90;96.50
44833;DHT22;30569;51.252;9.830;2023-03-15T12:57:11;7.80;94.40
44833;DHT22;30569;51.252;9.830;2023-03-15T12:59:45;7.70;91.30
44833;DHT22;30569;51.252;9.830;2023-03-15T13:02:24;7.60;92.10
44833;DHT22;30569;51.252;9.830;2023-03-15T13:05:00;7.10;94.50
44833;DHT22;30569;51.252;9.830;2023-03-15T13:18:49;7.00;91.10
44833;DHT22;30569;51.252;9.830;2023-03-15T13:21:23;7.10;86.60
44833;DHT22;30569;51.252;9.830;2023-03-15T13:23:51;6.80;90.70
44833;DHT22;30569;51.252;9.830;2023-03-15T13:26:27;6.70;90.80
44833;DHT22;30569;51.252;9.830;2023-03-15T13:29:09;6.80;92.10
44833;DHT22;30569;51.252;9.830;2023-03-15T13:31:36;6.90;91.80
44833;DHT22;30569;51.252;9.830;2023-03-15T13:36:41;7.00;91.80
44833;DHT22;30569;51.252;9.830;2023-03-15T13:39:15;7.50;89.50
44833;DHT22;30569;51.252;9.830;2023-03-15T13:41:41;6.90;87.10
44833;DHT22;30569;51.252;9.830;2023-03-15T13:44:16;7.10;87.80
44833;DHT22;30569;51.252;9.830;2023-03-15T13:46:42;7.20;83.10
44833;DHT22;30569;51.252;9.830;2023-03-15T13:49:10;7.60;82.70
44833;DHT22;30569;51.252;9.830;2023-03-15T13:51:37;7.70;81.00
44833;DHT22;30569;51.252;9.830;2023-03-15T13:54:25;7.70;83.70
44833;DHT22;30569;51.252;9.830;2023-03-15T13:59:44;6.80;81.00
44833;DHT22;30569;51.252;9.830;2023-03-15T14:02:15;6.30;82.10
44833;DHT22;30569;51.252;9.830;2023-03-15T14:04:41;6.40;82.30
44833;DHT22;30569;51.252;9.830;2023-03-15T14:07:28;6.90;84.00
44833;DHT22;30569;51.252;9.830;2023-03-15T14:10:29;7.10;82.00
44833;DHT22;30569;51.252;9.830;2023-03-15T14:12:57;7.20;78.40
44833;DHT22;30569;51.252;9.830;2023-03-15T14:15:33;7.20;79.40
44833;DHT22;30569;51.252;9.830;2023-03-15T14:18:02;7.10;85.40
44833;DHT22;30569;51.252;9.830;2023-03-15T14:20:32;7.20;80.00
44833;DHT22;30569;51.252;9.830;2023-03-15T14:23:02;7.30;83.40
44833;DHT22;30569;51.252;9.830;2023-03-15T14:25:33;7.20;81.90
44833;DHT22;30569;51.252;9.830;2023-03-15T14:28:01;7.00;84.60
44833;DHT22;30569;51.252;9.830;2023-03-15T14:30:28;7.20;82.30
44833;DHT22;30569;51.252;9.830;2023-03-15T14:32:57;7.00;84.00
44833;DHT22;30569;51.252;9.830;2023-03-15T14:35:30;6.90;83.10
44833;DHT22;30569;51.252;9.830;2023-03-15T14:38:07;7.00;78.30
44833;DHT22;30569;51.252;9.830;2023-03-15T14:40:35;7.10;80.60
44833;DHT22;30569;51.252;9.830;2023-03-15T14:43:02;7.10;84.40
44833;DHT22;30569;51.252;9.830;2023-03-15T14:45:30;7.40;84.10
44833;DHT22;30569;51.252;9.830;2023-03-15T14:48:02;7.80;77.60
44833;DHT22;30569;51.252;9.830;2023-03-15T14:50:40;7.70;80.80
44833;DHT22;30569;51.252;9.830;2023-03-15T14:53:08;7.60;77.40
44833;DHT22;30569;51.252;9.830;2023-03-15T14:55:35;7.50;76.40
44833;DHT22;30569;51.252;9.830;2023-03-15T14:58:12;7.20;74.70
44833;DHT22;30569;51.252;9.830;2023-03-15T15:00:38;7.20;79.80
44833;DHT22;30569;51.252;9.830;2023-03-15T15:03:12;7.00;74.10
44833;DHT22;30569;51.252;9.830;2023-03-15T15:05:39;6.90;75.30
44833;DHT22;30569;51.252;9.830;2023-03-15T15:08:09;6.40;75.70
44833;DHT22;30569;51.252;9.830;2023-03-15T15:10:38;6.60;79.10
44833;DHT22;30569;51.252;9.830;2023-03-15T15:15:31;6.70;79.40
44833;DHT22;30569;51.252;9.830;2023-03-15T15:17:56;7.10;80.20
44833;DHT22;30569;51.252;9.830;2023-03-15T15:20:22;6.80;80.30
44833;DHT22;30569;51.252;9.830;2023-03-15T15:22:48;7.30;81.00
44833;DHT22;30569;51.252;9.830;2023-03-15T15:25:16;7.40;77.10
44833;DHT22;30569;51.252;9.830;2023-03-15T15:27:42;7.50;78.10
44833;DHT22;30569;51.252;9.830;2023-03-15T15:30:16;7.60;79.20
44833;DHT22;30569;51.252;9.830;2023-03-15T15:32:43;7.80;79.90
44833;DHT22;30569;51.252;9.830;2023-03-15T15:35:17;7.70;76.50
44833;DHT22;30569;51.252;9.830;2023-03-15T15:37:45;8.00;81.50
44833;DHT22;30569;51.252;9.830;2023-03-15T15:40:29;7.30;83.30
44833;DHT22;30569;51.252;9.830;2023-03-15T15:42:55;7.40;76.30
44833;DHT22;30569;51.252;9.830;2023-03-15T15:45:21;7.30;78.90
44833;DHT22;30569;51.252;9.830;2023-03-15T15:47:49;7.00;79.60
44833;DHT22;30569;51.252;9.830;2023-03-15T15:50:16;6.80;82.00
44833;DHT22;30569;51.252;9.830;2023-03-15T15:52:50;6.40;83.60
44833;DHT22;30569;51.252;9.830;2023-03-15T15:55:17;6.30;81.50
44833;DHT22;30569;51.252;9.830;2023-03-15T15:57:48;5.70;90.70
44833;DHT22;30569;51.252;9.830;2023-03-15T16:00:20;5.60;92.20
44833;DHT22;30569;51.252;9.830;2023-03-15T16:02:48;5.70;93.00
44833;DHT22;30569;51.252;9.830;2023-03-15T16:05:14;5.90;92.30
44833;DHT22;30569;51.252;9.830;2023-03-15T16:07:40;6.20;92.80
44833;DHT22;30569;51.252;9.830;2023-03-15T16:10:09;6.20;89.30
44833;DHT22;30569;51.252;9.830;2023-03-15T16:12:36;6.00;90.70
44833;DHT22;30569;51.252;9.830;2023-03-15T16:17:28;6.20;88.00
44833;DHT22;30569;51.252;9.830;2023-03-15T16:19:54;6.20;88.20
44833;DHT22;30569;51.252;9.830;2023-03-15T16:22:21;6.50;87.00
44833;DHT22;30569;51.252;9.830;2023-03-15T16:24:52;6.50;86.70
44833;DHT22;30569;51.252;9.830;2023-03-15T16:27:22;6.50;90.00
44833;DHT22;30569;51.252;9.830;2023-03-15T16:29:49;6.40;90.20
44833;DHT22;30569;51.252;9.830;2023-03-15T16:32:19;6.30;90.80
44833;DHT22;30569;51.252;9.830;2023-03-15T16:34:46;6.20;91.00
44833;DHT22;30569;51.252;9.830;2023-03-15T16:37:20;6.30;93.40
44833;DHT22;30569;51.252;9.830;2023-03-15T16:39:47;6.00;92.80
44833;DHT22;30569;51.252;9.830;2023-03-15T16:42:14;5.40;99.90
44833;DHT22;30569;51.252;9.830;2023-03-15T16:44:41;5.20;96.90
44833;DHT22;30569;51.252;9.830;2023-03-15T16:47:07;4.80;99.90
44833;DHT22;30569;51.252;9.830;2023-03-15T16:49:33;4.70;99.60
44833;DHT22;30569;51.252;9.830;2023-03-15T16:52:00;4.20;99.90
44833;DHT22;30569;51.252;9.830;2023-03-15T16:54:27;4.50;99.90
44833;DHT22;30569;51.252;9.830;2023-03-15T16:56:53;4.30;99.30
44833;DHT22;30569;51.252;9.830;2023-03-15T16:59:19;4.30;97.80
44833;DHT22;30569;51.252;9.830;2023-03-15T17:01:45;3.80;96.90
44833;DHT22;30569;51.252;9.830;2023-03-15T17:04:11;3.80;96.80
44833;DHT22;30569;51.252;9.830;2023-03-15T17:06:40;4.50;96.10
44833;DHT22;30569;51.252;9.830;2023-03-15T17:09:21;4.70;96.50
44833;DHT22;30569;51.252;9.830;2023-03-15T17:11:48;4.40;98.20
44833;DHT22;30569;51.252;9.830;2023-03-15T17:14:22;4.10;99.90
44833;DHT22;30569;51.252;9.830;2023-03-15T17:19:15;3.80;99.90
44833;DHT22;30569;51.252;9.830;2023-03-15T17:21:41;3.70;99.70
44833;DHT22;30569;51.252;9.830;2023-03-15T17:24:09;3.40;99.90
44833;DHT22;30569;51.252;9.830;2023-03-15T17:26:35;3.10;99.90
44833;DHT22;30569;51.252;9.830;2023-03-15T17:29:02;3.30;99.90
44833;DHT22;30569;51.252;9.830;2023-03-15T17:31:29;2.30;99.90
44833;DHT22;30569;51.252;9.830;2023-03-15T17:36:22;2.90;99.90
44833;DHT22;30569;51.252;9.830;2023-03-15T17:38:49;2.50;99.90
44833;DHT22;30569;51.252;9.830;2023-03-15T17:41:21;2.30;99.90
44833;DHT22;30569;51.252;9.830;2023-03-15T17:43:49;1.90;99.90
44833;DHT22;30569;51.252;9.830;2023-03-15T17:46:16;1.70;99.90
44833;DHT22;30569;51.252;9.830;2023-03-15T17:51:15;1.50;99.90
44833;DHT22;30569;51.252;9.830;2023-03-15T17:53:42;1.10;99.90
44833;DHT22;30569;51.252;9.830;2023-03-15T17:58:33;1.60;99.90
44833;DHT22;30569;51.252;9.830;2023-03-15T18:00:59;0.80;99.90
44833;DHT22;30569;51.252;9.830;2023-03-15T18:03:25;1.00;99.90
44833;DHT22;30569;51.252;9.830;2023-03-15T18:08:19;0.90;99.90
44833;DHT22;30569;51.252;9.830;2023-03-15T18:10:46;1.10;99.90
44833;DHT22;30569;51.252;9.830;2023-03-15T18:13:14;0.90;99.90
44833;DHT22;30569;51.252;9.830;2023-03-15T18:22:59;0.40;99.90
44833;DHT22;30569;51.252;9.830;2023-03-15T18:25:27;0.20;99.90
44833;DHT22;30569;51.252;9.830;2023-03-15T18:27:53;0.20;99.90
44833;DHT22;30569;51.252;9.830;2023-03-15T18:30:21;0.30;99.90
44833;DHT22;30569;51.252;9.830;2023-03-15T18:32:47;-0.10;99.90
44833;DHT22;30569;51.252;9.830;2023-03-15T18:35:26;-0.30;99.90
44833;DHT22;30569;51.252;9.830;2023-03-15T18:37:52;-0.40;99.90
44833;DHT22;30569;51.252;9.830;2023-03-15T18:40:20;-0.10;99.90
44833;DHT22;30569;51.252;9.830;2023-03-15T18:42:46;-0.60;99.90
44833;DHT22;30569;51.252;9.830;2023-03-15T18:45:21;-0.10;99.90
44833;DHT22;30569;51.252;9.830;2023-03-15T18:47:47;-0.30;99.90
44833;DHT22;30569;51.252;9.830;2023-03-15T18:50:14;-0.60;99.90
44833;DHT22;30569;51.252;9.830;2023-03-15T18:55:07;-0.60;99.90
44833;DHT22;30569;51.252;9.830;2023-03-15T18:57:37;-0.70;99.90
44833;DHT22;30569;51.252;9.830;2023-03-15T19:00:07;-0.50;99.90
44833;DHT22;30569;51.252;9.830;2023-03-15T19:02:48;-0.90;99.90
44833;DHT22;30569;51.252;9.830;2023-03-15T19:07:40;-1.10;99.90
44833;DHT22;30569;51.252;9.830;2023-03-15T19:10:09;-1.10;99.90
44833;DHT22;30569;51.252;9.830;2023-03-15T19:12:35;-1.10;99.90
44833;DHT22;30569;51.252;9.830;2023-03-15T19:19:54;-0.90;99.90
44833;DHT22;30569;51.252;9.830;2023-03-15T19:27:12;-1.20;99.90
44833;DHT22;30569;51.252;9.830;2023-03-15T19:36:56;-0.70;99.90
44833;DHT22;30569;51.252;9.830;2023-03-15T19:41:49;-0.50;99.90
44833;DHT22;30569;51.252;9.830;2023-03-15T19:44:14;-0.80;99.90
44833;DHT22;30569;51.252;9.830;2023-03-15T19:51:32;-1.50;99.90
44833;DHT22;30569;51.252;9.830;2023-03-15T19:53:57;-1.60;99.90
44833;DHT22;30569;51.252;9.830;2023-03-15T19:58:49;-1.50;99.90
44833;DHT22;30569;51.252;9.830;2023-03-15T20:03:41;-0.70;99.90
44833;DHT22;30569;51.252;9.830;2023-03-15T20:06:08;-1.40;99.90
44833;DHT22;30569;51.252;9.830;2023-03-15T20:08:34;-1.60;99.90
44833;DHT22;30569;51.252;9.830;2023-03-15T20:11:01;-1.40;99.90
44833;DHT22;30569;51.252;9.830;2023-03-15T20:13:28;-1.60;99.90
44833;DHT22;30569;51.252;9.830;2023-03-15T20:15:54;-1.50;99.90
44833;DHT22;30569;51.252;9.830;2023-03-15T20:18:20;-1.40;99.90
44833;DHT22;30569;51.252;9.830;2023-03-15T20:20:45;-1.80;99.90
44833;DHT22;30569;51.252;9.830;2023-03-15T20:25:37;-2.00;99.90
44833;DHT22;30569;51.252;9.830;2023-03-15T20:30:29;-1.50;99.90
44833;DHT22;30569;51.252;9.830;2023-03-15T20:32:55;-2.10;99.90
44833;DHT22;30569;51.252;9.830;2023-03-15T20:35:20;-2.30;99.90
44833;DHT22;30569;51.252;9.830;2023-03-15T20:40:13;-2.40;99.90
44833;DHT22;30569;51.252;9.830;2023-03-15T20:42:40;-1.90;99.90
44833;DHT22;30569;51.252;9.830;2023-03-15T20:45:07;-2.00;99.90
44833;DHT22;30569;51.252;9.830;2023-03-15T20:47:34;-2.20;99.90
44833;DHT22;30569;51.252;9.830;2023-03-15T20:50:00;-2.20;99.90
44833;DHT22;30569;51.252;9.830;2023-03-15T20:57:18;-1.40;99.90
44833;DHT22;30569;51.252;9.830;2023-03-15T21:04:36;-2.40;99.90
44833;DHT22;30569;51.252;9.830;2023-03-15T21:09:31;-2.60;99.90
44833;DHT22;30569;51.252;9.830;2023-03-15T21:11:58;-2.50;99.90
44833;DHT22;30569;51.252;9.830;2023-03-15T21:14:24;-2.50;99.90
44833;DHT22;30569;51.252;9.830;2023-03-15T21:16:50;-2.60;99.90
44833;DHT22;30569;51.252;9.830;2023-03-15T21:19:15;-2.70;99.90
44833;DHT22;30569;51.252;9.830;2023-03-15T21:21:41;-2.70;99.90
44833;DHT22;30569;51.252;9.830;2023-03-15T21:26:37;-2.80;99.90
44833;DHT22;30569;51.252;9.830;2023-03-15T21:29:04;-2.90;99.90
44833;DHT22;30569;51.252;9.830;2023-03-15T21:31:29;-2.90;99.90
44833;DHT22;30569;51.252;9.830;2023-03-15T21:33:55;-2.80;99.90
44833;DHT22;30569;51.252;9.830;2023-03-15T21:36:20;-2.60;99.90
44833;DHT22;30569;51.252;9.830;2023-03-15T21:41:12;-1.70;99.90
44833;DHT22;30569;51.252;9.830;2023-03-15T21:43:38;-2.60;99.90
44833;DHT22;30569;51.252;9.830;2023-03-15T21:46:07;-2.70;99.90
44833;DHT22;30569;51.252;9.830;2023-03-15T21:51:00;-2.10;99.90
44833;DHT22;30569;51.252;9.830;2023-03-15T21:53:27;-2.50;99.90
44833;DHT22;30569;51.252;9.830;2023-03-15T21:56:01;-2.80;99.90
44833;DHT22;30569;51.252;9.830;2023-03-15T21:58:26;-2.70;99.90
44833;DHT22;30569;51.252;9.830;2023-03-15T22:01:00;-2.50;99.90
44833;DHT22;30569;51.252;9.830;2023-03-15T22:03:28;-2.70;99.90
44833;DHT22;30569;51.252;9.830;2023-03-15T22:05:54;-2.90;99.90
44833;DHT22;30569;51.252;9.830;2023-03-15T22:08:19;-2.80;99.90
44833;DHT22;30569;51.252;9.830;2023-03-15T22:10:46;-3.10;99.90
44833;DHT22;30569;51.252;9.830;2023-03-15T22:18:03;-3.20;99.90
44833;DHT22;30569;51.252;9.830;2023-03-15T22:20:29;-3.20;99.90
44833;DHT22;30569;51.252;9.830;2023-03-15T22:22:55;-3.10;99.90
44833;DHT22;30569;51.252;9.830;2023-03-15T22:25:21;-2.80;99.90
44833;DHT22;30569;51.252;9.830;2023-03-15T22:30:13;-2.80;99.90
44833;DHT22;30569;51.252;9.830;2023-03-15T22:32:42;-3.20;99.90
44833;DHT22;30569;51.252;9.830;2023-03-15T22:35:10;-3.30;99.90
44833;DHT22;30569;51.252;9.830;2023-03-15T22:37:36;-2.70;99.90
44833;DHT22;30569;51.252;9.830;2023-03-15T22:44:54;-3.10;99.90
44833;DHT22;30569;51.252;9.830;2023-03-15T22:47:20;-3.20;99.90
44833;DHT22;30569;51.252;9.830;2023-03-15T22:49:45;-2.70;99.90
44833;DHT22;30569;51.252;9.830;2023-03-15T22:52:11;-2.70;99.90
44833;DHT22;30569;51.252;9.830;2023-03-15T22:54:37;-3.10;99.90
44833;DHT22;30569;51.252;9.830;2023-03-15T22:57:02;-3.20;99.90
44833;DHT22;30569;51.252;9.830;2023-03-15T22:59:28;-3.30;99.90
44833;DHT22;30569;51.252;9.830;2023-03-15T23:01:57;-3.00;99.90
44833;DHT22;30569;51.252;9.830;2023-03-15T23:06:49;-3.50;99.90
44833;DHT22;30569;51.252;9.830;2023-03-15T23:09:14;-3.60;99.90
44833;DHT22;30569;51.252;9.830;2023-03-15T23:11:40;-3.00;99.90
44833;DHT22;30569;51.252;9.830;2023-03-15T23:14:05;-3.80;99.90
44833;DHT22;30569;51.252;9.830;2023-03-15T23:16:31;-3.50;99.90
44833;DHT22;30569;51.252;9.830;2023-03-15T23:18:57;-3.40;99.90
44833;DHT22;30569;51.252;9.830;2023-03-15T23:21:22;-3.40;99.90
44833;DHT22;30569;51.252;9.830;2023-03-15T23:23:48;-3.60;99.90
44833;DHT22;30569;51.252;9.830;2023-03-15T23:26:13;-3.10;99.90
44833;DHT22;30569;51.252;9.830;2023-03-15T23:31:09;-3.70;99.90
44833;DHT22;30569;51.252;9.830;2023-03-15T23:33:35;-3.80;99.90
44833;DHT22;30569;51.252;9.830;2023-03-15T23:36:02;-3.80;99.90
44833;DHT22;30569;51.252;9.830;2023-03-15T23:40:58;-3.70;99.90
44833;DHT22;30569;51.252;9.830;2023-03-15T23:43:24;-3.80;99.90
44833;DHT22;30569;51.252;9.830;2023-03-15T23:45:56;-3.80;99.90
44833;DHT22;30569;51.252;9.830;2023-03-15T23:50:55;-3.50;99.90
44833;DHT22;30569;51.252;9.830;2023-03-15T23:53:22;-3.30;99.90
44833;DHT22;30569;51.252;9.830;2023-03-15T23:55:50;-3.60;99.90
44833;DHT22;30569;51.252;9.830;2023-03-15T23:58:17;-3.40;99.90
